createdAt,value
2018-03-27T00:02:23.114Z,4.40
2018-03-27T00:04:51.308Z,4.40
2018-03-27T00:07:20.196Z,4.30
2018-03-27T00:09:49.072Z,4.30
2018-03-27T00:12:17.942Z,4.30
2018-03-27T00:14:46.088Z,4.30
2018-03-27T00:17:14.328Z,4.30
2018-03-27T00:19:43.214Z,4.20
2018-03-27T00:22:12.087Z,4.20
2018-03-27T00:24:42.106Z,4.20
2018-03-27T00:27:10.628Z,4.10
2018-03-27T00:29:50.713Z,4.10
2018-03-27T00:32:30.664Z,4.10
2018-03-27T00:35:10.661Z,4.00
2018-03-27T00:37:51.491Z,4.00
2018-03-27T00:40:31.590Z,3.90
2018-03-27T00:43:10.404Z,3.90
2018-03-27T00:45:39.273Z,3.90
2018-03-27T00:48:08.171Z,3.80
2018-03-27T00:50:37.041Z,3.80
2018-03-27T00:53:05.164Z,3.80
2018-03-27T00:55:33.285Z,3.80
2018-03-27T00:58:01.400Z,3.80
2018-03-27T01:00:29.530Z,3.70
2018-03-27T01:02:57.640Z,3.70
2018-03-27T01:05:25.747Z,3.70
2018-03-27T01:07:53.889Z,3.60
2018-03-27T01:10:22.047Z,3.60
2018-03-27T01:12:50.923Z,3.60
2018-03-27T01:15:19.803Z,3.50
2018-03-27T01:17:47.923Z,3.50
2018-03-27T01:20:16.084Z,3.50
2018-03-27T01:22:44.195Z,3.50
2018-03-27T01:25:12.300Z,3.40
2018-03-27T01:27:41.180Z,3.40
2018-03-27T01:30:09.268Z,3.30
2018-03-27T01:32:38.124Z,3.30
2018-03-27T01:35:06.233Z,3.30
2018-03-27T01:37:35.103Z,3.30
2018-03-27T01:40:03.196Z,3.20
2018-03-27T01:42:32.056Z,3.20
2018-03-27T01:45:00.238Z,3.20
2018-03-27T01:47:28.324Z,3.20
2018-03-27T01:49:57.196Z,3.10
2018-03-27T01:52:25.317Z,3.10
2018-03-27T01:54:53.428Z,3.10
2018-03-27T01:57:21.526Z,3.10
2018-03-27T01:59:50.415Z,3.10
2018-03-27T02:02:19.403Z,3.10
2018-03-27T02:04:48.272Z,3.00
2018-03-27T02:07:16.384Z,3.00
2018-03-27T02:09:44.478Z,3.00
2018-03-27T02:12:18.360Z,3.00
2018-03-27T02:14:52.121Z,3.00
2018-03-27T02:17:26.058Z,2.90
2018-03-27T02:19:59.815Z,2.90
2018-03-27T02:22:27.910Z,2.90
2018-03-27T02:24:56.048Z,2.90
2018-03-27T02:27:24.135Z,2.80
2018-03-27T02:29:52.226Z,2.80
2018-03-27T02:32:20.337Z,2.80
2018-03-27T02:34:49.263Z,2.80
2018-03-27T02:37:17.313Z,2.80
2018-03-27T02:39:45.452Z,2.80
2018-03-27T02:42:14.329Z,2.70
2018-03-27T02:44:42.435Z,2.70
2018-03-27T02:47:10.522Z,2.70
2018-03-27T02:49:38.663Z,2.70
2018-03-27T02:52:07.531Z,2.60
2018-03-27T02:54:35.717Z,2.60
2018-03-27T02:57:03.735Z,2.60
2018-03-27T02:59:31.857Z,2.60
2018-03-27T03:02:00.725Z,2.60
2018-03-27T03:04:28.843Z,2.60
2018-03-27T03:06:58.206Z,2.60
2018-03-27T03:09:26.313Z,2.60
2018-03-27T03:11:55.192Z,2.60
2018-03-27T03:14:24.075Z,2.60
2018-03-27T03:16:52.941Z,2.60
2018-03-27T03:19:21.049Z,2.60
2018-03-27T03:21:50.039Z,2.60
2018-03-27T03:24:18.921Z,2.60
2018-03-27T03:26:48.813Z,2.60
2018-03-27T03:29:16.903Z,2.60
2018-03-27T03:31:45.777Z,2.60
2018-03-27T03:34:13.881Z,2.60
2018-03-27T03:36:42.012Z,2.60
2018-03-27T03:39:10.124Z,2.60
2018-03-27T03:41:39.008Z,2.70
2018-03-27T03:44:07.924Z,2.70
2018-03-27T03:46:36.047Z,2.60
2018-03-27T03:49:04.142Z,2.70
2018-03-27T03:51:33.028Z,2.70
2018-03-27T03:54:01.904Z,2.80
2018-03-27T03:56:30.026Z,2.70
2018-03-27T03:58:58.171Z,2.80
2018-03-27T04:01:27.044Z,2.90
2018-03-27T04:03:55.181Z,2.90
2018-03-27T04:06:23.292Z,2.90
2018-03-27T04:08:52.168Z,3.00
2018-03-27T04:11:20.303Z,3.00
2018-03-27T04:13:48.410Z,3.10
2018-03-27T04:16:16.548Z,3.20
2018-03-27T04:18:44.683Z,3.20
2018-03-27T04:21:13.553Z,3.30
2018-03-27T04:23:41.707Z,3.30
2018-03-27T04:26:09.865Z,3.40
2018-03-27T04:28:37.939Z,3.40
2018-03-27T04:31:06.040Z,3.50
2018-03-27T04:33:34.217Z,3.50
2018-03-27T04:36:02.340Z,3.60
2018-03-27T04:38:30.449Z,3.60
2018-03-27T04:41:00.066Z,3.70
2018-03-27T04:43:28.969Z,3.70
2018-03-27T04:45:57.863Z,3.80
2018-03-27T04:48:26.735Z,3.80
2018-03-27T04:50:54.840Z,3.80
2018-03-27T04:53:22.959Z,3.90
2018-03-27T04:55:51.079Z,3.90
2018-03-27T04:58:19.197Z,4.00
2018-03-27T05:00:47.303Z,4.10
2018-03-27T05:03:16.191Z,4.20
2018-03-27T05:05:45.103Z,4.20
2018-03-27T05:08:13.211Z,4.20
2018-03-27T05:10:41.324Z,4.30
2018-03-27T05:13:09.455Z,4.40
2018-03-27T05:15:37.903Z,4.50
2018-03-27T05:18:06.011Z,4.50
2018-03-27T05:20:34.123Z,4.60
2018-03-27T05:23:03.026Z,4.70
2018-03-27T05:25:31.921Z,4.80
2018-03-27T05:28:00.794Z,4.80
2018-03-27T05:30:29.671Z,4.80
2018-03-27T05:32:57.790Z,4.80
2018-03-27T05:35:25.909Z,4.90
2018-03-27T05:37:54.048Z,5.00
2018-03-27T05:40:22.185Z,5.00
2018-03-27T05:42:51.067Z,5.10
2018-03-27T05:45:19.945Z,5.20
2018-03-27T05:47:48.140Z,5.20
2018-03-27T05:50:17.020Z,5.30
2018-03-27T05:52:45.919Z,5.40
2018-03-27T05:55:14.836Z,5.40
2018-03-27T05:57:42.954Z,5.40
2018-03-27T06:00:11.068Z,5.50
2018-03-27T06:02:39.195Z,5.60
2018-03-27T06:05:07.339Z,5.60
2018-03-27T06:07:35.418Z,5.60
2018-03-27T06:10:03.641Z,5.70
2018-03-27T06:12:32.522Z,5.80
2018-03-27T06:15:01.418Z,5.90
2018-03-27T06:17:30.396Z,5.90
2018-03-27T06:19:58.444Z,5.90
2018-03-27T06:22:26.550Z,5.90
2018-03-27T06:24:55.478Z,6.10
2018-03-27T06:27:23.624Z,6.10
2018-03-27T06:29:51.724Z,6.10
2018-03-27T06:32:19.856Z,6.20
2018-03-27T06:34:48.738Z,6.40
2018-03-27T06:37:17.632Z,6.40
2018-03-27T06:39:46.536Z,6.50
2018-03-27T06:42:15.468Z,6.60
2018-03-27T06:44:43.600Z,6.60
2018-03-27T06:47:12.531Z,6.80
2018-03-27T06:49:40.638Z,6.70
2018-03-27T06:52:08.752Z,6.90
2018-03-27T06:54:36.898Z,7.00
2018-03-27T06:57:05.796Z,7.20
2018-03-27T06:59:34.845Z,7.30
2018-03-27T07:02:03.006Z,7.30
2018-03-27T07:04:31.114Z,7.40
2018-03-27T07:06:59.316Z,7.50
2018-03-27T07:09:28.219Z,7.70
2018-03-27T07:11:56.388Z,7.70
2018-03-27T07:14:24.555Z,7.70
2018-03-27T07:16:52.698Z,7.80
2018-03-27T07:19:20.788Z,7.90
2018-03-27T07:21:49.668Z,8.00
2018-03-27T07:24:17.767Z,8.00
2018-03-27T07:26:46.027Z,8.10
2018-03-27T07:29:14.927Z,8.20
2018-03-27T07:31:43.095Z,8.20
2018-03-27T07:34:11.224Z,8.30
2018-03-27T07:36:39.444Z,8.40
2018-03-27T07:39:08.437Z,8.50
2018-03-27T07:41:37.308Z,8.50
2018-03-27T07:44:06.180Z,8.60
2018-03-27T07:46:34.323Z,8.60
2018-03-27T07:49:02.486Z,8.60
2018-03-27T07:51:30.600Z,8.60
2018-03-27T07:53:58.799Z,8.70
2018-03-27T07:56:27.708Z,8.80
2018-03-27T07:58:55.835Z,8.80
2018-03-27T08:01:23.947Z,8.90
2018-03-27T08:03:52.066Z,9.00
2018-03-27T08:06:20.189Z,9.10
2018-03-27T08:08:48.308Z,9.20
2018-03-27T08:11:16.541Z,9.20
2018-03-27T08:13:44.681Z,9.40
2018-03-27T08:16:13.557Z,9.50
2018-03-27T08:18:43.308Z,9.60
2018-03-27T08:21:11.487Z,9.60
2018-03-27T08:23:39.615Z,9.70
2018-03-27T08:26:07.721Z,9.80
2018-03-27T08:28:36.619Z,10.00
2018-03-27T08:31:04.733Z,10.00
2018-03-27T08:33:32.850Z,10.20
2018-03-27T08:36:01.775Z,10.40
2018-03-27T08:38:29.917Z,10.50
2018-03-27T08:40:58.807Z,10.60
2018-03-27T08:43:27.687Z,10.70
2018-03-27T08:45:56.666Z,10.70
2018-03-27T08:48:24.745Z,10.70
2018-03-27T08:50:53.635Z,10.70
2018-03-27T08:53:22.554Z,10.70
2018-03-27T08:55:50.675Z,10.70
2018-03-27T08:58:18.823Z,10.70
2018-03-27T09:00:46.946Z,10.70
2018-03-27T09:03:15.838Z,10.60
2018-03-27T09:05:44.747Z,10.60
2018-03-27T09:08:12.883Z,10.60
2018-03-27T09:10:42.509Z,10.60
2018-03-27T09:13:11.393Z,10.60
2018-03-27T09:15:40.317Z,10.60
2018-03-27T09:18:08.463Z,10.60
2018-03-27T09:20:37.356Z,10.70
2018-03-27T09:23:06.241Z,10.60
2018-03-27T09:25:35.161Z,10.60
2018-03-27T09:28:03.287Z,10.60
2018-03-27T09:30:31.439Z,10.60
2018-03-27T09:32:59.564Z,10.70
2018-03-27T09:35:27.771Z,10.70
2018-03-27T09:37:56.026Z,10.80
2018-03-27T09:40:24.167Z,10.80
2018-03-27T09:42:52.285Z,10.80
2018-03-27T09:45:20.406Z,10.80
2018-03-27T09:47:48.561Z,10.80
2018-03-27T09:50:16.686Z,10.80
2018-03-27T09:52:44.813Z,10.90
2018-03-27T09:55:12.934Z,10.90
2018-03-27T09:57:41.115Z,10.90
2018-03-27T10:00:09.282Z,11.00
2018-03-27T10:02:37.390Z,11.00
2018-03-27T10:05:05.514Z,11.10
2018-03-27T10:07:33.656Z,11.10
2018-03-27T10:10:03.402Z,11.20
2018-03-27T10:12:31.576Z,11.20
2018-03-27T10:14:59.734Z,11.30
2018-03-27T10:17:28.618Z,11.40
2018-03-27T10:19:57.524Z,11.50
2018-03-27T10:22:26.442Z,11.50
2018-03-27T10:24:54.628Z,11.50
2018-03-27T10:27:22.747Z,11.50
2018-03-27T10:29:51.662Z,11.50
2018-03-27T10:32:19.858Z,11.50
2018-03-27T10:34:47.964Z,11.50
2018-03-27T10:37:16.110Z,11.50
2018-03-27T10:39:44.240Z,11.50
2018-03-27T10:42:12.427Z,11.50
2018-03-27T10:44:40.544Z,11.40
2018-03-27T10:47:08.784Z,11.40
2018-03-27T10:49:36.940Z,11.30
2018-03-27T10:52:05.128Z,11.40
2018-03-27T10:54:33.244Z,11.30
2018-03-27T10:57:01.370Z,11.40
2018-03-27T10:59:29.512Z,11.30
2018-03-27T11:01:58.389Z,11.30
2018-03-27T11:04:26.604Z,11.30
2018-03-27T11:06:54.792Z,11.30
2018-03-27T11:09:23.894Z,11.30
2018-03-27T11:11:51.999Z,11.40
2018-03-27T11:14:20.139Z,11.50
2018-03-27T11:16:48.284Z,11.60
2018-03-27T11:19:16.424Z,11.60
2018-03-27T11:21:44.651Z,11.70
2018-03-27T11:24:12.776Z,11.70
2018-03-27T11:26:40.932Z,11.70
2018-03-27T11:29:09.052Z,11.70
2018-03-27T11:31:37.191Z,11.80
2018-03-27T11:34:06.838Z,11.70
2018-03-27T11:36:34.960Z,11.70
2018-03-27T11:39:03.092Z,11.80
2018-03-27T11:41:31.229Z,11.70
2018-03-27T11:44:00.112Z,11.50
2018-03-27T11:46:28.997Z,11.40
2018-03-27T11:48:57.969Z,11.30
2018-03-27T11:51:26.118Z,11.30
2018-03-27T11:53:54.239Z,11.20
2018-03-27T11:56:22.355Z,11.20
2018-03-27T11:58:50.488Z,11.20
2018-03-27T12:01:19.388Z,11.20
2018-03-27T12:03:48.280Z,11.20
2018-03-27T12:06:17.223Z,11.20
2018-03-27T12:08:45.343Z,11.20
2018-03-27T12:11:14.240Z,11.20
2018-03-27T12:13:43.167Z,11.20
2018-03-27T12:16:11.329Z,11.20
2018-03-27T12:18:39.487Z,11.20
2018-03-27T12:21:07.641Z,11.10
2018-03-27T12:23:36.545Z,11.00
2018-03-27T12:26:05.468Z,11.00
2018-03-27T12:28:33.715Z,10.90
2018-03-27T12:31:01.919Z,10.90
2018-03-27T12:33:30.067Z,10.90
2018-03-27T12:35:58.206Z,10.90
2018-03-27T12:38:27.837Z,10.80
2018-03-27T12:40:56.849Z,10.80
2018-03-27T12:43:25.029Z,10.80
2018-03-27T12:45:53.179Z,10.90
2018-03-27T12:48:22.065Z,10.90
2018-03-27T12:50:51.067Z,10.90
2018-03-27T12:53:19.238Z,10.90
2018-03-27T12:55:47.299Z,10.90
2018-03-27T12:58:16.227Z,10.90
2018-03-27T13:00:44.343Z,10.90
2018-03-27T13:03:13.263Z,10.90
2018-03-27T13:05:41.411Z,10.90
2018-03-27T13:08:09.563Z,10.90
2018-03-27T13:10:37.719Z,10.80
2018-03-27T13:13:05.869Z,10.80
2018-03-27T13:15:33.975Z,10.80
2018-03-27T13:18:02.256Z,10.70
2018-03-27T13:20:30.380Z,10.60
2018-03-27T13:22:58.565Z,10.60
2018-03-27T13:25:26.684Z,10.60
2018-03-27T13:27:54.814Z,10.70
2018-03-27T13:30:22.942Z,10.70
2018-03-27T13:32:51.858Z,10.70
2018-03-27T13:35:20.050Z,10.70
2018-03-27T13:37:48.166Z,10.80
2018-03-27T13:40:16.386Z,10.80
2018-03-27T13:42:44.488Z,10.80
2018-03-27T13:45:12.612Z,10.90
2018-03-27T13:47:41.508Z,10.90
2018-03-27T13:50:10.365Z,10.90
2018-03-27T13:52:38.576Z,10.90
2018-03-27T13:55:07.571Z,10.80
2018-03-27T13:57:36.448Z,10.80
2018-03-27T14:00:06.200Z,10.80
2018-03-27T14:02:34.302Z,10.80
2018-03-27T14:05:02.404Z,10.80
2018-03-27T14:07:31.304Z,10.70
2018-03-27T14:10:00.212Z,10.70
2018-03-27T14:12:28.356Z,10.70
2018-03-27T14:14:57.301Z,10.70
2018-03-27T14:17:26.116Z,10.70
2018-03-27T14:19:54.240Z,10.70
2018-03-27T14:22:22.371Z,10.70
2018-03-27T14:24:51.254Z,10.70
2018-03-27T14:27:20.183Z,10.70
2018-03-27T14:29:48.379Z,10.70
2018-03-27T14:32:16.484Z,10.60
2018-03-27T14:34:44.584Z,10.60
2018-03-27T14:37:13.464Z,10.60
2018-03-27T14:39:41.680Z,10.60
2018-03-27T14:42:09.828Z,10.60
2018-03-27T14:44:38.753Z,10.50
2018-03-27T14:47:07.607Z,10.50
2018-03-27T14:49:36.515Z,10.50
2018-03-27T14:52:04.637Z,10.50
2018-03-27T14:54:32.751Z,10.50
2018-03-27T14:57:01.667Z,10.50
2018-03-27T14:59:29.798Z,10.50
2018-03-27T15:01:58.725Z,10.50
2018-03-27T15:04:26.832Z,10.50
2018-03-27T15:06:54.943Z,10.50
2018-03-27T15:09:23.939Z,10.60
2018-03-27T15:11:52.942Z,10.60
2018-03-27T15:14:21.067Z,10.60
2018-03-27T15:16:49.286Z,10.60
2018-03-27T15:19:17.389Z,10.60
2018-03-27T15:21:45.501Z,10.60
2018-03-27T15:24:15.196Z,10.60
2018-03-27T15:26:43.275Z,10.60
2018-03-27T15:29:12.899Z,10.50
2018-03-27T15:31:41.801Z,10.50
2018-03-27T15:34:10.691Z,10.50
2018-03-27T15:36:39.683Z,10.50
2018-03-27T15:39:08.578Z,10.50
2018-03-27T15:41:36.781Z,10.50
2018-03-27T15:44:04.953Z,10.50
2018-03-27T15:46:33.065Z,10.50
2018-03-27T15:49:01.167Z,10.40
2018-03-27T15:51:30.114Z,10.40
2018-03-27T15:53:58.233Z,10.40
2018-03-27T15:56:27.102Z,10.30
2018-03-27T15:58:55.987Z,10.30
2018-03-27T16:01:24.890Z,10.30
2018-03-27T16:03:53.794Z,10.20
2018-03-27T16:06:21.899Z,10.20
2018-03-27T16:08:50.009Z,10.20
2018-03-27T16:11:18.927Z,10.20
2018-03-27T16:13:47.054Z,10.20
2018-03-27T16:16:15.210Z,10.20
2018-03-27T16:18:43.310Z,10.10
2018-03-27T16:21:11.415Z,10.10
2018-03-27T16:23:39.695Z,10.00
2018-03-27T16:26:08.579Z,10.00
2018-03-27T16:28:37.468Z,10.00
2018-03-27T16:31:06.382Z,10.00
2018-03-27T16:33:34.504Z,10.00
2018-03-27T16:36:04.140Z,10.00
2018-03-27T16:38:33.011Z,10.10
2018-03-27T16:41:01.894Z,10.00
2018-03-27T16:43:30.142Z,10.00
2018-03-27T16:45:58.255Z,10.10
2018-03-27T16:48:27.131Z,10.10
2018-03-27T16:50:55.432Z,10.00
2018-03-27T16:53:24.422Z,10.00
2018-03-27T16:55:53.320Z,10.00
2018-03-27T16:58:22.193Z,10.00
2018-03-27T17:00:51.112Z,10.00
2018-03-27T17:03:19.244Z,10.00
2018-03-27T17:05:47.402Z,9.90
2018-03-27T17:08:15.628Z,9.90
2018-03-27T17:10:43.740Z,10.00
2018-03-27T17:13:11.896Z,10.00
2018-03-27T17:15:40.017Z,10.00
2018-03-27T17:18:08.116Z,9.90
2018-03-27T17:20:36.238Z,9.90
2018-03-27T17:23:04.348Z,9.90
2018-03-27T17:25:33.212Z,9.90
2018-03-27T17:28:01.338Z,9.90
2018-03-27T17:30:29.494Z,10.00
2018-03-27T17:32:58.384Z,9.90
2018-03-27T17:35:26.504Z,9.90
2018-03-27T17:37:54.601Z,9.90
2018-03-27T17:40:23.543Z,9.90
2018-03-27T17:42:51.715Z,9.90
2018-03-27T17:45:20.594Z,9.90
2018-03-27T17:47:48.725Z,9.90
2018-03-27T17:50:16.849Z,9.90
2018-03-27T17:52:45.716Z,9.80
2018-03-27T17:55:14.604Z,9.80
2018-03-27T17:57:43.475Z,9.80
2018-03-27T18:00:12.394Z,9.80
2018-03-27T18:02:40.499Z,9.80
2018-03-27T18:05:08.620Z,9.80
2018-03-27T18:07:37.491Z,9.70
2018-03-27T18:10:06.411Z,9.70
2018-03-27T18:12:35.419Z,9.80
2018-03-27T18:15:03.577Z,9.70
2018-03-27T18:17:32.472Z,9.80
2018-03-27T18:20:01.335Z,9.80
2018-03-27T18:22:30.991Z,9.80
2018-03-27T18:24:59.099Z,9.80
2018-03-27T18:27:27.318Z,9.80
2018-03-27T18:29:57.084Z,9.80
2018-03-27T18:32:25.227Z,9.80
2018-03-27T18:34:53.347Z,9.80
2018-03-27T18:37:21.498Z,9.90
2018-03-27T18:39:49.589Z,9.90
2018-03-27T18:42:18.496Z,9.90
2018-03-27T18:44:47.418Z,9.90
2018-03-27T18:47:15.527Z,9.90
2018-03-27T18:49:43.648Z,9.90
2018-03-27T18:52:11.803Z,10.00
2018-03-27T18:54:40.711Z,10.00
2018-03-27T18:57:08.879Z,10.00
2018-03-27T18:59:37.007Z,10.10
2018-03-27T19:02:05.257Z,10.00
2018-03-27T19:04:33.423Z,10.10
2018-03-27T19:07:01.535Z,10.10
2018-03-27T19:09:29.651Z,10.10
2018-03-27T19:11:57.763Z,10.10
2018-03-27T19:14:25.995Z,10.20
2018-03-27T19:16:54.121Z,10.20
2018-03-27T19:19:22.263Z,10.30
2018-03-27T19:21:50.407Z,10.30
2018-03-27T19:24:19.325Z,10.30
2018-03-27T19:26:47.479Z,10.30
2018-03-27T19:29:15.607Z,10.30
2018-03-27T19:31:43.823Z,10.40
2018-03-27T19:34:11.968Z,10.40
2018-03-27T19:36:40.865Z,10.50
2018-03-27T19:39:09.755Z,10.50
2018-03-27T19:41:37.947Z,10.50
2018-03-27T19:44:06.075Z,10.60
2018-03-27T19:46:34.295Z,10.60
2018-03-27T19:49:02.427Z,10.60
2018-03-27T19:51:30.644Z,10.70
2018-03-27T19:53:58.780Z,10.70
2018-03-27T19:56:26.903Z,10.70
2018-03-27T19:58:55.023Z,10.70
2018-03-27T20:01:23.192Z,10.80
2018-03-27T20:03:52.844Z,10.80
2018-03-27T20:06:20.982Z,10.80
2018-03-27T20:08:49.903Z,10.90
2018-03-27T20:11:18.057Z,10.90
2018-03-27T20:13:46.283Z,10.90
2018-03-27T20:16:14.428Z,10.90
2018-03-27T20:18:42.546Z,10.90
2018-03-27T20:21:10.796Z,10.90
2018-03-27T20:23:38.942Z,10.90
2018-03-27T20:26:07.834Z,11.00
2018-03-27T20:28:36.006Z,10.90
2018-03-27T20:31:04.136Z,11.00
2018-03-27T20:33:32.360Z,11.00
2018-03-27T20:36:00.497Z,11.00
2018-03-27T20:38:30.134Z,11.10
2018-03-27T20:40:59.024Z,11.10
2018-03-27T20:43:27.168Z,11.10
2018-03-27T20:45:56.107Z,11.10
2018-03-27T20:48:24.234Z,11.10
2018-03-27T20:50:52.348Z,11.20
2018-03-27T20:53:20.513Z,11.20
2018-03-27T20:55:48.680Z,11.20
2018-03-27T20:58:16.806Z,11.20
2018-03-27T21:00:44.924Z,11.20
2018-03-27T21:03:13.822Z,11.30
2018-03-27T21:05:41.956Z,11.20
2018-03-27T21:08:10.172Z,11.30
2018-03-27T21:10:38.294Z,11.30
2018-03-27T21:13:06.413Z,11.30
2018-03-27T21:15:34.548Z,11.40
2018-03-27T21:18:04.188Z,11.30
2018-03-27T21:20:33.083Z,11.30
2018-03-27T21:23:01.247Z,11.30
2018-03-27T21:25:30.173Z,11.40
2018-03-27T21:27:58.287Z,11.30
2018-03-27T21:30:26.408Z,11.40
2018-03-27T21:32:54.552Z,11.40
2018-03-27T21:35:23.446Z,11.50
2018-03-27T21:37:52.459Z,11.50
2018-03-27T21:40:20.624Z,11.50
2018-03-27T21:42:48.744Z,11.50
2018-03-27T21:45:16.971Z,11.50
2018-03-27T21:47:45.100Z,11.50
2018-03-27T21:50:13.989Z,11.50
2018-03-27T21:52:42.120Z,11.50
2018-03-27T21:55:10.245Z,11.50
2018-03-27T21:57:39.887Z,11.50
2018-03-27T22:00:08.012Z,11.50
2018-03-27T22:02:36.123Z,11.50
2018-03-27T22:05:04.263Z,11.50
2018-03-27T22:07:32.411Z,11.60
2018-03-27T22:10:00.540Z,11.50
2018-03-27T22:12:29.435Z,11.60
2018-03-27T22:14:57.612Z,11.50
2018-03-27T22:17:25.791Z,11.60
2018-03-27T22:19:54.663Z,11.60
2018-03-27T22:22:23.567Z,11.60
2018-03-27T22:24:51.751Z,11.60
2018-03-27T22:27:19.877Z,11.60
2018-03-27T22:29:47.992Z,11.50
2018-03-27T22:32:16.111Z,11.50
2018-03-27T22:34:44.263Z,11.60
2018-03-27T22:37:12.397Z,11.50
2018-03-27T22:39:41.291Z,11.50
2018-03-27T22:42:10.183Z,11.50
2018-03-27T22:44:38.303Z,11.50
2018-03-27T22:47:06.459Z,11.50
2018-03-27T22:49:34.593Z,11.50
2018-03-27T22:52:03.480Z,11.50
2018-03-27T22:54:32.380Z,11.50
2018-03-27T22:57:00.563Z,11.50
2018-03-27T22:59:28.734Z,11.50
2018-03-27T23:01:56.903Z,11.50
2018-03-27T23:04:25.023Z,11.50
2018-03-27T23:06:53.195Z,11.50
2018-03-27T23:09:21.325Z,11.50
2018-03-27T23:11:49.442Z,11.50
2018-03-27T23:14:17.587Z,11.40
2018-03-27T23:16:45.719Z,11.40
2018-03-27T23:19:14.614Z,11.40
2018-03-27T23:21:43.503Z,11.40
2018-03-27T23:24:12.412Z,11.40
2018-03-27T23:26:40.551Z,11.30
2018-03-27T23:29:09.475Z,11.40
2018-03-27T23:31:37.648Z,11.30
2018-03-27T23:34:05.775Z,11.30
2018-03-27T23:36:33.994Z,11.30
2018-03-27T23:39:02.166Z,11.30
2018-03-27T23:41:30.290Z,11.30
2018-03-27T23:43:58.420Z,11.30
2018-03-27T23:46:26.541Z,11.20
2018-03-27T23:48:54.664Z,11.20
2018-03-27T23:51:22.787Z,11.20
2018-03-27T23:53:50.929Z,11.20
2018-03-27T23:56:19.048Z,11.20
2018-03-27T23:58:47.952Z,11.10
